sensor_id;sensor_type;location;lat;lon;timestamp;P1;durP1;ratioP1;P2;durP2;ratioP2
20559;SDS011;10438;51.454;6.718;2023-04-25T00:00:20;21.80;;;5.53;;
20559;SDS011;10438;51.454;6.718;2023-04-25T00:02:46;15.77;;;5.50;;
20559;SDS011;10438;51.454;6.718;2023-04-25T00:05:11;12.57;;;5.13;;
20559;SDS011;10438;51.454;6.718;2023-04-25T00:07:37;15.23;;;5.10;;
20559;SDS011;10438;51.454;6.718;2023-04-25T00:10:03;15.27;;;5.23;;
20559;SDS011;10438;51.454;6.718;2023-04-25T00:12:29;20.53;;;6.90;;
20559;SDS011;10438;51.454;6.718;2023-04-25T00:14:55;17.00;;;5.40;;
20559;SDS011;10438;51.454;6.718;2023-04-25T00:17:24;20.20;;;4.87;;
20559;SDS011;10438;51.454;6.718;2023-04-25T00:19:51;19.43;;;5.40;;
20559;SDS011;10438;51.454;6.718;2023-04-25T00:22:17;16.70;;;5.37;;
20559;SDS011;10438;51.454;6.718;2023-04-25T00:24:43;19.93;;;5.80;;
20559;SDS011;10438;51.454;6.718;2023-04-25T00:27:08;18.93;;;5.20;;
20559;SDS011;10438;51.454;6.718;2023-04-25T00:29:34;15.40;;;5.07;;
20559;SDS011;10438;51.454;6.718;2023-04-25T00:31:59;19.40;;;5.10;;
20559;SDS011;10438;51.454;6.718;2023-04-25T00:34:25;19.20;;;5.27;;
20559;SDS011;10438;51.454;6.718;2023-04-25T00:36:51;20.03;;;5.50;;
20559;SDS011;10438;51.454;6.718;2023-04-25T00:39:16;18.93;;;5.73;;
20559;SDS011;10438;51.454;6.718;2023-04-25T00:41:42;15.37;;;5.23;;
20559;SDS011;10438;51.454;6.718;2023-04-25T00:44:08;15.80;;;5.10;;
20559;SDS011;10438;51.454;6.718;2023-04-25T00:46:36;19.43;;;5.20;;
20559;SDS011;10438;51.454;6.718;2023-04-25T00:49:02;16.50;;;5.70;;
20559;SDS011;10438;51.454;6.718;2023-04-25T00:51:27;21.47;;;5.43;;
20559;SDS011;10438;51.454;6.718;2023-04-25T00:53:53;21.07;;;5.17;;
20559;SDS011;10438;51.454;6.718;2023-04-25T00:56:19;18.70;;;5.57;;
20559;SDS011;10438;51.454;6.718;2023-04-25T00:58:46;13.13;;;5.17;;
20559;SDS011;10438;51.454;6.718;2023-04-25T01:01:12;16.27;;;5.30;;
20559;SDS011;10438;51.454;6.718;2023-04-25T01:03:39;14.33;;;5.73;;
20559;SDS011;10438;51.454;6.718;2023-04-25T01:06:08;15.50;;;5.67;;
20559;SDS011;10438;51.454;6.718;2023-04-25T01:08:36;16.93;;;5.97;;
20559;SDS011;10438;51.454;6.718;2023-04-25T01:11:02;16.43;;;5.47;;
20559;SDS011;10438;51.454;6.718;2023-04-25T01:13:29;17.60;;;5.77;;
20559;SDS011;10438;51.454;6.718;2023-04-25T01:15:56;14.67;;;4.70;;
20559;SDS011;10438;51.454;6.718;2023-04-25T01:18:23;17.50;;;5.40;;
20559;SDS011;10438;51.454;6.718;2023-04-25T01:20:50;15.23;;;5.23;;
20559;SDS011;10438;51.454;6.718;2023-04-25T01:23:16;13.63;;;5.00;;
20559;SDS011;10438;51.454;6.718;2023-04-25T01:25:43;18.40;;;4.90;;
20559;SDS011;10438;51.454;6.718;2023-04-25T01:28:10;13.27;;;4.53;;
20559;SDS011;10438;51.454;6.718;2023-04-25T01:30:36;19.83;;;5.00;;
20559;SDS011;10438;51.454;6.718;2023-04-25T01:33:02;14.27;;;4.90;;
20559;SDS011;10438;51.454;6.718;2023-04-25T01:35:29;15.83;;;5.10;;
20559;SDS011;10438;51.454;6.718;2023-04-25T01:37:55;15.47;;;4.70;;
20559;SDS011;10438;51.454;6.718;2023-04-25T01:40:21;11.93;;;4.93;;
20559;SDS011;10438;51.454;6.718;2023-04-25T01:42:47;14.53;;;5.50;;
20559;SDS011;10438;51.454;6.718;2023-04-25T01:45:13;14.70;;;5.30;;
20559;SDS011;10438;51.454;6.718;2023-04-25T01:47:39;15.57;;;4.63;;
20559;SDS011;10438;51.454;6.718;2023-04-25T01:50:07;13.27;;;5.57;;
20559;SDS011;10438;51.454;6.718;2023-04-25T01:52:33;14.07;;;5.23;;
20559;SDS011;10438;51.454;6.718;2023-04-25T01:54:59;14.73;;;5.60;;
20559;SDS011;10438;51.454;6.718;2023-04-25T01:57:28;17.20;;;5.53;;
20559;SDS011;10438;51.454;6.718;2023-04-25T01:59:55;13.80;;;5.67;;
20559;SDS011;10438;51.454;6.718;2023-04-25T02:02:24;22.03;;;5.90;;
20559;SDS011;10438;51.454;6.718;2023-04-25T02:04:51;15.73;;;5.57;;
20559;SDS011;10438;51.454;6.718;2023-04-25T02:07:16;15.23;;;5.33;;
20559;SDS011;10438;51.454;6.718;2023-04-25T02:09:42;16.73;;;5.10;;
20559;SDS011;10438;51.454;6.718;2023-04-25T02:12:09;17.30;;;5.60;;
20559;SDS011;10438;51.454;6.718;2023-04-25T02:14:35;16.30;;;5.33;;
20559;SDS011;10438;51.454;6.718;2023-04-25T02:17:01;19.37;;;5.53;;
20559;SDS011;10438;51.454;6.718;2023-04-25T02:19:26;15.57;;;5.23;;
20559;SDS011;10438;51.454;6.718;2023-04-25T02:21:52;13.17;;;5.07;;
20559;SDS011;10438;51.454;6.718;2023-04-25T02:24:17;14.57;;;4.80;;
20559;SDS011;10438;51.454;6.718;2023-04-25T02:26:43;15.13;;;5.13;;
20559;SDS011;10438;51.454;6.718;2023-04-25T02:29:09;15.53;;;5.40;;
20559;SDS011;10438;51.454;6.718;2023-04-25T02:31:35;18.13;;;6.27;;
20559;SDS011;10438;51.454;6.718;2023-04-25T02:34:00;17.57;;;5.07;;
20559;SDS011;10438;51.454;6.718;2023-04-25T02:36:26;13.77;;;5.30;;
20559;SDS011;10438;51.454;6.718;2023-04-25T02:38:52;15.10;;;5.10;;
20559;SDS011;10438;51.454;6.718;2023-04-25T02:41:18;17.30;;;5.57;;
20559;SDS011;10438;51.454;6.718;2023-04-25T02:43:43;13.13;;;4.87;;
20559;SDS011;10438;51.454;6.718;2023-04-25T02:46:09;15.07;;;5.67;;
20559;SDS011;10438;51.454;6.718;2023-04-25T02:48:34;18.87;;;5.20;;
20559;SDS011;10438;51.454;6.718;2023-04-25T02:51:00;16.00;;;4.83;;
20559;SDS011;10438;51.454;6.718;2023-04-25T02:53:25;16.03;;;4.80;;
20559;SDS011;10438;51.454;6.718;2023-04-25T02:55:51;16.03;;;4.60;;
20559;SDS011;10438;51.454;6.718;2023-04-25T02:58:17;14.33;;;4.40;;
20559;SDS011;10438;51.454;6.718;2023-04-25T03:00:43;16.27;;;5.00;;
20559;SDS011;10438;51.454;6.718;2023-04-25T03:03:09;14.00;;;4.73;;
20559;SDS011;10438;51.454;6.718;2023-04-25T03:05:35;23.80;;;5.27;;
20559;SDS011;10438;51.454;6.718;2023-04-25T03:08:01;16.03;;;4.97;;
20559;SDS011;10438;51.454;6.718;2023-04-25T03:10:27;15.40;;;5.10;;
20559;SDS011;10438;51.454;6.718;2023-04-25T03:12:52;22.60;;;4.97;;
20559;SDS011;10438;51.454;6.718;2023-04-25T03:15:18;15.93;;;5.43;;
20559;SDS011;10438;51.454;6.718;2023-04-25T03:17:43;17.13;;;4.67;;
20559;SDS011;10438;51.454;6.718;2023-04-25T03:20:09;19.33;;;4.80;;
20559;SDS011;10438;51.454;6.718;2023-04-25T03:22:35;11.63;;;4.37;;
20559;SDS011;10438;51.454;6.718;2023-04-25T03:25:01;16.73;;;4.90;;
20559;SDS011;10438;51.454;6.718;2023-04-25T03:27:27;15.13;;;4.93;;
20559;SDS011;10438;51.454;6.718;2023-04-25T03:29:53;19.40;;;5.73;;
20559;SDS011;10438;51.454;6.718;2023-04-25T03:32:18;21.13;;;5.00;;
20559;SDS011;10438;51.454;6.718;2023-04-25T03:34:44;14.33;;;4.90;;
20559;SDS011;10438;51.454;6.718;2023-04-25T03:37:10;19.03;;;6.00;;
20559;SDS011;10438;51.454;6.718;2023-04-25T03:39:35;15.57;;;4.90;;
20559;SDS011;10438;51.454;6.718;2023-04-25T03:42:01;16.20;;;4.70;;
20559;SDS011;10438;51.454;6.718;2023-04-25T03:44:27;18.90;;;5.93;;
20559;SDS011;10438;51.454;6.718;2023-04-25T03:46:53;19.40;;;5.70;;
20559;SDS011;10438;51.454;6.718;2023-04-25T03:49:18;24.20;;;5.27;;
20559;SDS011;10438;51.454;6.718;2023-04-25T03:51:44;17.50;;;5.40;;
20559;SDS011;10438;51.454;6.718;2023-04-25T03:54:09;20.13;;;5.70;;
20559;SDS011;10438;51.454;6.718;2023-04-25T03:56:35;26.20;;;5.57;;
20559;SDS011;10438;51.454;6.718;2023-04-25T03:59:00;24.23;;;5.17;;
20559;SDS011;10438;51.454;6.718;2023-04-25T04:01:26;23.67;;;6.07;;
20559;SDS011;10438;51.454;6.718;2023-04-25T04:03:51;26.17;;;6.00;;
20559;SDS011;10438;51.454;6.718;2023-04-25T04:06:17;20.77;;;5.83;;
20559;SDS011;10438;51.454;6.718;2023-04-25T04:08:43;21.23;;;5.33;;
20559;SDS011;10438;51.454;6.718;2023-04-25T04:11:09;18.63;;;4.93;;
20559;SDS011;10438;51.454;6.718;2023-04-25T04:13:35;29.90;;;5.87;;
20559;SDS011;10438;51.454;6.718;2023-04-25T04:16:01;19.63;;;5.00;;
20559;SDS011;10438;51.454;6.718;2023-04-25T04:18:26;23.57;;;5.73;;
20559;SDS011;10438;51.454;6.718;2023-04-25T04:20:52;18.77;;;5.17;;
20559;SDS011;10438;51.454;6.718;2023-04-25T04:23:18;23.50;;;5.80;;
20559;SDS011;10438;51.454;6.718;2023-04-25T04:25:45;18.37;;;6.57;;
20559;SDS011;10438;51.454;6.718;2023-04-25T04:28:11;19.60;;;6.00;;
20559;SDS011;10438;51.454;6.718;2023-04-25T04:30:39;21.50;;;5.60;;
20559;SDS011;10438;51.454;6.718;2023-04-25T04:33:06;15.90;;;5.43;;
20559;SDS011;10438;51.454;6.718;2023-04-25T04:35:32;16.40;;;5.60;;
20559;SDS011;10438;51.454;6.718;2023-04-25T04:37:57;24.80;;;6.20;;
20559;SDS011;10438;51.454;6.718;2023-04-25T04:40:23;16.70;;;6.00;;
20559;SDS011;10438;51.454;6.718;2023-04-25T04:42:50;21.37;;;7.10;;
20559;SDS011;10438;51.454;6.718;2023-04-25T04:45:15;18.80;;;6.90;;
20559;SDS011;10438;51.454;6.718;2023-04-25T04:47:41;23.93;;;6.83;;
20559;SDS011;10438;51.454;6.718;2023-04-25T04:50:08;21.33;;;6.03;;
20559;SDS011;10438;51.454;6.718;2023-04-25T04:52:35;24.27;;;7.70;;
20559;SDS011;10438;51.454;6.718;2023-04-25T04:55:01;30.97;;;8.93;;
20559;SDS011;10438;51.454;6.718;2023-04-25T04:57:28;32.73;;;8.40;;
20559;SDS011;10438;51.454;6.718;2023-04-25T04:59:54;19.10;;;7.20;;
20559;SDS011;10438;51.454;6.718;2023-04-25T05:02:20;24.20;;;7.10;;
20559;SDS011;10438;51.454;6.718;2023-04-25T05:04:46;31.33;;;8.03;;
20559;SDS011;10438;51.454;6.718;2023-04-25T05:07:12;28.10;;;7.47;;
20559;SDS011;10438;51.454;6.718;2023-04-25T05:09:37;32.10;;;8.70;;
20559;SDS011;10438;51.454;6.718;2023-04-25T05:12:03;27.87;;;7.13;;
20559;SDS011;10438;51.454;6.718;2023-04-25T05:14:29;19.37;;;6.17;;
20559;SDS011;10438;51.454;6.718;2023-04-25T05:16:54;25.90;;;7.60;;
20559;SDS011;10438;51.454;6.718;2023-04-25T05:19:20;23.63;;;6.63;;
20559;SDS011;10438;51.454;6.718;2023-04-25T05:21:45;18.40;;;6.37;;
20559;SDS011;10438;51.454;6.718;2023-04-25T05:24:11;17.67;;;6.67;;
20559;SDS011;10438;51.454;6.718;2023-04-25T05:26:37;18.67;;;7.17;;
20559;SDS011;10438;51.454;6.718;2023-04-25T05:29:02;22.90;;;6.90;;
20559;SDS011;10438;51.454;6.718;2023-04-25T05:31:28;20.90;;;7.10;;
20559;SDS011;10438;51.454;6.718;2023-04-25T05:33:53;20.60;;;7.10;;
20559;SDS011;10438;51.454;6.718;2023-04-25T05:36:19;20.47;;;6.57;;
20559;SDS011;10438;51.454;6.718;2023-04-25T05:38:44;23.93;;;6.33;;
20559;SDS011;10438;51.454;6.718;2023-04-25T05:41:10;25.83;;;6.70;;
20559;SDS011;10438;51.454;6.718;2023-04-25T05:43:36;20.83;;;6.53;;
20559;SDS011;10438;51.454;6.718;2023-04-25T05:46:02;23.70;;;5.83;;
20559;SDS011;10438;51.454;6.718;2023-04-25T05:48:27;17.43;;;6.17;;
20559;SDS011;10438;51.454;6.718;2023-04-25T05:50:53;19.87;;;6.13;;
20559;SDS011;10438;51.454;6.718;2023-04-25T05:53:19;20.37;;;5.57;;
20559;SDS011;10438;51.454;6.718;2023-04-25T05:55:45;18.30;;;5.70;;
20559;SDS011;10438;51.454;6.718;2023-04-25T05:58:11;24.17;;;5.93;;
20559;SDS011;10438;51.454;6.718;2023-04-25T06:00:36;22.03;;;5.50;;
20559;SDS011;10438;51.454;6.718;2023-04-25T06:03:03;16.60;;;4.57;;
20559;SDS011;10438;51.454;6.718;2023-04-25T06:05:28;14.87;;;4.97;;
20559;SDS011;10438;51.454;6.718;2023-04-25T06:07:54;19.00;;;5.30;;
20559;SDS011;10438;51.454;6.718;2023-04-25T06:10:20;18.93;;;4.30;;
20559;SDS011;10438;51.454;6.718;2023-04-25T06:12:45;16.97;;;4.10;;
20559;SDS011;10438;51.454;6.718;2023-04-25T06:15:11;16.83;;;4.40;;
20559;SDS011;10438;51.454;6.718;2023-04-25T06:17:37;17.70;;;4.37;;
20559;SDS011;10438;51.454;6.718;2023-04-25T06:20:02;20.50;;;4.70;;
20559;SDS011;10438;51.454;6.718;2023-04-25T06:22:28;15.20;;;3.87;;
20559;SDS011;10438;51.454;6.718;2023-04-25T06:24:54;14.53;;;4.47;;
20559;SDS011;10438;51.454;6.718;2023-04-25T06:27:22;20.77;;;4.47;;
20559;SDS011;10438;51.454;6.718;2023-04-25T06:29:47;15.60;;;5.00;;
20559;SDS011;10438;51.454;6.718;2023-04-25T06:32:13;12.77;;;4.03;;
20559;SDS011;10438;51.454;6.718;2023-04-25T06:34:39;15.13;;;4.00;;
20559;SDS011;10438;51.454;6.718;2023-04-25T06:37:04;16.30;;;4.57;;
20559;SDS011;10438;51.454;6.718;2023-04-25T06:39:30;21.13;;;4.70;;
20559;SDS011;10438;51.454;6.718;2023-04-25T06:41:55;16.77;;;4.00;;
20559;SDS011;10438;51.454;6.718;2023-04-25T06:44:21;19.43;;;4.60;;
20559;SDS011;10438;51.454;6.718;2023-04-25T06:46:48;16.73;;;4.47;;
20559;SDS011;10438;51.454;6.718;2023-04-25T06:49:14;17.33;;;3.93;;
20559;SDS011;10438;51.454;6.718;2023-04-25T06:51:40;19.87;;;4.33;;
20559;SDS011;10438;51.454;6.718;2023-04-25T06:54:06;22.27;;;4.20;;
20559;SDS011;10438;51.454;6.718;2023-04-25T06:56:31;17.83;;;4.50;;
20559;SDS011;10438;51.454;6.718;2023-04-25T06:58:57;23.67;;;4.60;;
20559;SDS011;10438;51.454;6.718;2023-04-25T07:01:22;14.17;;;4.63;;
20559;SDS011;10438;51.454;6.718;2023-04-25T07:03:48;21.50;;;4.10;;
20559;SDS011;10438;51.454;6.718;2023-04-25T07:06:13;21.07;;;5.13;;
20559;SDS011;10438;51.454;6.718;2023-04-25T07:08:39;18.70;;;4.17;;
20559;SDS011;10438;51.454;6.718;2023-04-25T07:11:04;19.67;;;4.57;;
20559;SDS011;10438;51.454;6.718;2023-04-25T07:13:30;20.23;;;4.70;;
20559;SDS011;10438;51.454;6.718;2023-04-25T07:15:56;22.67;;;4.10;;
20559;SDS011;10438;51.454;6.718;2023-04-25T07:18:21;20.60;;;4.27;;
20559;SDS011;10438;51.454;6.718;2023-04-25T07:20:47;15.57;;;3.67;;
20559;SDS011;10438;51.454;6.718;2023-04-25T07:23:12;19.47;;;4.07;;
20559;SDS011;10438;51.454;6.718;2023-04-25T07:25:38;17.10;;;4.23;;
20559;SDS011;10438;51.454;6.718;2023-04-25T07:28:04;23.17;;;4.60;;
20559;SDS011;10438;51.454;6.718;2023-04-25T07:30:29;18.57;;;4.10;;
20559;SDS011;10438;51.454;6.718;2023-04-25T07:32:55;14.60;;;3.20;;
20559;SDS011;10438;51.454;6.718;2023-04-25T07:35:21;15.27;;;3.30;;
20559;SDS011;10438;51.454;6.718;2023-04-25T07:37:46;15.10;;;3.40;;
20559;SDS011;10438;51.454;6.718;2023-04-25T07:40:12;16.30;;;3.80;;
20559;SDS011;10438;51.454;6.718;2023-04-25T07:42:38;15.40;;;3.47;;
20559;SDS011;10438;51.454;6.718;2023-04-25T07:45:03;18.10;;;3.80;;
20559;SDS011;10438;51.454;6.718;2023-04-25T07:47:29;13.00;;;3.30;;
20559;SDS011;10438;51.454;6.718;2023-04-25T07:49:54;16.40;;;2.97;;
20559;SDS011;10438;51.454;6.718;2023-04-25T07:52:21;12.50;;;2.83;;
20559;SDS011;10438;51.454;6.718;2023-04-25T07:54:47;15.67;;;3.47;;
20559;SDS011;10438;51.454;6.718;2023-04-25T07:57:13;14.37;;;3.80;;
20559;SDS011;10438;51.454;6.718;2023-04-25T07:59:39;15.03;;;2.93;;
20559;SDS011;10438;51.454;6.718;2023-04-25T08:02:05;15.90;;;3.00;;
20559;SDS011;10438;51.454;6.718;2023-04-25T08:04:30;17.47;;;3.40;;
20559;SDS011;10438;51.454;6.718;2023-04-25T08:06:56;14.77;;;3.00;;
20559;SDS011;10438;51.454;6.718;2023-04-25T08:09:21;13.57;;;3.07;;
20559;SDS011;10438;51.454;6.718;2023-04-25T08:11:47;14.37;;;3.63;;
20559;SDS011;10438;51.454;6.718;2023-04-25T08:14:13;15.73;;;2.87;;
20559;SDS011;10438;51.454;6.718;2023-04-25T08:16:39;20.37;;;2.87;;
20559;SDS011;10438;51.454;6.718;2023-04-25T08:19:04;13.20;;;2.50;;
20559;SDS011;10438;51.454;6.718;2023-04-25T08:21:30;19.83;;;3.40;;
20559;SDS011;10438;51.454;6.718;2023-04-25T08:23:56;18.53;;;2.80;;
20559;SDS011;10438;51.454;6.718;2023-04-25T08:26:23;14.73;;;2.43;;
20559;SDS011;10438;51.454;6.718;2023-04-25T08:28:49;13.80;;;2.50;;
20559;SDS011;10438;51.454;6.718;2023-04-25T08:31:14;8.67;;;2.10;;
20559;SDS011;10438;51.454;6.718;2023-04-25T08:33:40;16.63;;;2.70;;
20559;SDS011;10438;51.454;6.718;2023-04-25T08:36:05;11.43;;;2.80;;
20559;SDS011;10438;51.454;6.718;2023-04-25T08:38:31;9.97;;;2.40;;
20559;SDS011;10438;51.454;6.718;2023-04-25T08:40:56;11.67;;;2.50;;
20559;SDS011;10438;51.454;6.718;2023-04-25T08:43:24;13.63;;;2.20;;
20559;SDS011;10438;51.454;6.718;2023-04-25T08:45:50;13.53;;;2.73;;
20559;SDS011;10438;51.454;6.718;2023-04-25T08:48:19;14.47;;;2.43;;
20559;SDS011;10438;51.454;6.718;2023-04-25T08:50:55;9.17;;;1.90;;
20559;SDS011;10438;51.454;6.718;2023-04-25T08:53:22;9.07;;;2.03;;
20559;SDS011;10438;51.454;6.718;2023-04-25T08:55:56;9.70;;;2.40;;
20559;SDS011;10438;51.454;6.718;2023-04-25T08:58:23;12.23;;;2.30;;
20559;SDS011;10438;51.454;6.718;2023-04-25T09:00:50;11.43;;;1.83;;
20559;SDS011;10438;51.454;6.718;2023-04-25T09:03:17;8.77;;;1.90;;
20559;SDS011;10438;51.454;6.718;2023-04-25T09:05:43;15.97;;;2.30;;
20559;SDS011;10438;51.454;6.718;2023-04-25T09:08:09;9.73;;;1.90;;
20559;SDS011;10438;51.454;6.718;2023-04-25T09:10:35;9.73;;;2.27;;
20559;SDS011;10438;51.454;6.718;2023-04-25T09:13:12;10.40;;;2.00;;
20559;SDS011;10438;51.454;6.718;2023-04-25T09:15:49;6.87;;;1.70;;
20559;SDS011;10438;51.454;6.718;2023-04-25T09:18:26;8.80;;;1.93;;
20559;SDS011;10438;51.454;6.718;2023-04-25T09:20:55;9.83;;;1.83;;
20559;SDS011;10438;51.454;6.718;2023-04-25T09:23:23;5.77;;;1.50;;
20559;SDS011;10438;51.454;6.718;2023-04-25T09:25:50;6.80;;;1.83;;
20559;SDS011;10438;51.454;6.718;2023-04-25T09:28:22;7.13;;;1.83;;
20559;SDS011;10438;51.454;6.718;2023-04-25T09:30:53;9.97;;;2.20;;
20559;SDS011;10438;51.454;6.718;2023-04-25T09:33:21;7.90;;;1.60;;
20559;SDS011;10438;51.454;6.718;2023-04-25T09:36:01;9.60;;;1.80;;
20559;SDS011;10438;51.454;6.718;2023-04-25T09:38:27;12.47;;;1.90;;
20559;SDS011;10438;51.454;6.718;2023-04-25T09:40:55;9.43;;;1.80;;
20559;SDS011;10438;51.454;6.718;2023-04-25T09:43:23;8.27;;;1.90;;
20559;SDS011;10438;51.454;6.718;2023-04-25T09:45:49;7.20;;;1.67;;
20559;SDS011;10438;51.454;6.718;2023-04-25T09:48:22;5.93;;;1.40;;
20559;SDS011;10438;51.454;6.718;2023-04-25T09:51:09;6.53;;;1.50;;
20559;SDS011;10438;51.454;6.718;2023-04-25T09:53:41;6.67;;;1.80;;
20559;SDS011;10438;51.454;6.718;2023-04-25T09:56:09;10.30;;;1.60;;
20559;SDS011;10438;51.454;6.718;2023-04-25T09:58:36;5.47;;;1.40;;
20559;SDS011;10438;51.454;6.718;2023-04-25T10:01:05;11.00;;;1.60;;
20559;SDS011;10438;51.454;6.718;2023-04-25T10:03:35;10.57;;;1.80;;
20559;SDS011;10438;51.454;6.718;2023-04-25T10:06:03;6.27;;;1.90;;
20559;SDS011;10438;51.454;6.718;2023-04-25T10:08:38;7.80;;;1.47;;
20559;SDS011;10438;51.454;6.718;2023-04-25T10:11:04;8.73;;;1.70;;
20559;SDS011;10438;51.454;6.718;2023-04-25T10:13:32;9.87;;;1.80;;
20559;SDS011;10438;51.454;6.718;2023-04-25T10:15:58;10.10;;;2.00;;
20559;SDS011;10438;51.454;6.718;2023-04-25T10:18:26;6.93;;;1.40;;
20559;SDS011;10438;51.454;6.718;2023-04-25T10:20:59;6.13;;;1.70;;
20559;SDS011;10438;51.454;6.718;2023-04-25T10:23:26;8.73;;;1.50;;
20559;SDS011;10438;51.454;6.718;2023-04-25T10:25:54;9.53;;;1.70;;
20559;SDS011;10438;51.454;6.718;2023-04-25T10:28:20;7.57;;;1.60;;
20559;SDS011;10438;51.454;6.718;2023-04-25T10:30:59;11.37;;;1.73;;
20559;SDS011;10438;51.454;6.718;2023-04-25T10:33:35;8.10;;;1.50;;
20559;SDS011;10438;51.454;6.718;2023-04-25T10:36:09;10.10;;;1.50;;
20559;SDS011;10438;51.454;6.718;2023-04-25T10:38:39;6.27;;;1.20;;
20559;SDS011;10438;51.454;6.718;2023-04-25T10:41:05;6.13;;;1.60;;
20559;SDS011;10438;51.454;6.718;2023-04-25T10:48:51;9.87;;;1.70;;
20559;SDS011;10438;51.454;6.718;2023-04-25T10:53:57;10.23;;;1.87;;
20559;SDS011;10438;51.454;6.718;2023-04-25T10:56:25;10.20;;;1.30;;
20559;SDS011;10438;51.454;6.718;2023-04-25T10:59:02;9.13;;;1.70;;
20559;SDS011;10438;51.454;6.718;2023-04-25T11:01:43;12.00;;;1.50;;
20559;SDS011;10438;51.454;6.718;2023-04-25T11:04:24;6.03;;;1.30;;
20559;SDS011;10438;51.454;6.718;2023-04-25T11:09:48;12.03;;;2.10;;
20559;SDS011;10438;51.454;6.718;2023-04-25T11:12:14;7.83;;;1.70;;
20559;SDS011;10438;51.454;6.718;2023-04-25T11:14:41;9.90;;;2.17;;
20559;SDS011;10438;51.454;6.718;2023-04-25T11:17:07;14.67;;;2.40;;
20559;SDS011;10438;51.454;6.718;2023-04-25T11:19:32;16.17;;;3.97;;
20559;SDS011;10438;51.454;6.718;2023-04-25T11:21:59;11.13;;;2.80;;
20559;SDS011;10438;51.454;6.718;2023-04-25T11:24:26;11.13;;;2.33;;
20559;SDS011;10438;51.454;6.718;2023-04-25T11:26:52;9.37;;;2.27;;
20559;SDS011;10438;51.454;6.718;2023-04-25T11:29:18;6.13;;;1.83;;
20559;SDS011;10438;51.454;6.718;2023-04-25T11:31:43;7.50;;;1.80;;
20559;SDS011;10438;51.454;6.718;2023-04-25T11:34:10;8.03;;;1.97;;
20559;SDS011;10438;51.454;6.718;2023-04-25T11:36:36;7.37;;;1.63;;
20559;SDS011;10438;51.454;6.718;2023-04-25T11:39:03;13.93;;;1.57;;
20559;SDS011;10438;51.454;6.718;2023-04-25T11:41:30;8.00;;;1.87;;
20559;SDS011;10438;51.454;6.718;2023-04-25T11:43:56;6.77;;;1.87;;
20559;SDS011;10438;51.454;6.718;2023-04-25T11:46:21;8.07;;;1.67;;
20559;SDS011;10438;51.454;6.718;2023-04-25T11:48:47;9.27;;;1.80;;
20559;SDS011;10438;51.454;6.718;2023-04-25T11:51:13;12.07;;;1.87;;
20559;SDS011;10438;51.454;6.718;2023-04-25T11:53:40;7.97;;;1.60;;
20559;SDS011;10438;51.454;6.718;2023-04-25T11:56:10;11.97;;;2.07;;
20559;SDS011;10438;51.454;6.718;2023-04-25T12:01:36;8.90;;;1.93;;
20559;SDS011;10438;51.454;6.718;2023-04-25T12:04:10;10.20;;;1.70;;
20559;SDS011;10438;51.454;6.718;2023-04-25T12:06:40;6.47;;;2.03;;
20559;SDS011;10438;51.454;6.718;2023-04-25T12:09:09;7.97;;;2.03;;
20559;SDS011;10438;51.454;6.718;2023-04-25T12:11:42;7.33;;;1.80;;
20559;SDS011;10438;51.454;6.718;2023-04-25T12:14:35;11.93;;;2.60;;
20559;SDS011;10438;51.454;6.718;2023-04-25T12:17:02;9.23;;;2.27;;
20559;SDS011;10438;51.454;6.718;2023-04-25T12:19:35;7.30;;;2.17;;
20559;SDS011;10438;51.454;6.718;2023-04-25T12:22:10;10.10;;;2.23;;
20559;SDS011;10438;51.454;6.718;2023-04-25T12:24:48;7.87;;;1.70;;
20559;SDS011;10438;51.454;6.718;2023-04-25T12:27:14;8.03;;;1.70;;
20559;SDS011;10438;51.454;6.718;2023-04-25T12:29:49;8.33;;;1.63;;
20559;SDS011;10438;51.454;6.718;2023-04-25T12:32:16;6.83;;;1.70;;
20559;SDS011;10438;51.454;6.718;2023-04-25T12:34:42;7.63;;;1.33;;
20559;SDS011;10438;51.454;6.718;2023-04-25T12:37:08;6.83;;;1.50;;
20559;SDS011;10438;51.454;6.718;2023-04-25T12:39:34;11.33;;;1.67;;
20559;SDS011;10438;51.454;6.718;2023-04-25T12:42:00;5.67;;;1.77;;
20559;SDS011;10438;51.454;6.718;2023-04-25T12:44:26;4.83;;;1.50;;
20559;SDS011;10438;51.454;6.718;2023-04-25T12:46:51;8.87;;;1.90;;
20559;SDS011;10438;51.454;6.718;2023-04-25T12:49:17;6.63;;;1.43;;
20559;SDS011;10438;51.454;6.718;2023-04-25T12:51:43;7.77;;;1.60;;
20559;SDS011;10438;51.454;6.718;2023-04-25T12:54:09;5.50;;;1.50;;
20559;SDS011;10438;51.454;6.718;2023-04-25T12:56:35;7.30;;;1.40;;
20559;SDS011;10438;51.454;6.718;2023-04-25T12:59:01;8.70;;;1.40;;
20559;SDS011;10438;51.454;6.718;2023-04-25T13:01:28;10.97;;;1.60;;
20559;SDS011;10438;51.454;6.718;2023-04-25T13:03:54;9.20;;;1.57;;
20559;SDS011;10438;51.454;6.718;2023-04-25T13:06:20;12.57;;;1.63;;
20559;SDS011;10438;51.454;6.718;2023-04-25T13:08:46;8.80;;;1.10;;
20559;SDS011;10438;51.454;6.718;2023-04-25T13:11:12;9.50;;;1.40;;
20559;SDS011;10438;51.454;6.718;2023-04-25T13:13:39;7.77;;;1.60;;
20559;SDS011;10438;51.454;6.718;2023-04-25T13:16:05;7.40;;;2.47;;
20559;SDS011;10438;51.454;6.718;2023-04-25T13:18:32;9.43;;;2.47;;
20559;SDS011;10438;51.454;6.718;2023-04-25T13:20:58;9.70;;;2.30;;
20559;SDS011;10438;51.454;6.718;2023-04-25T13:23:25;7.20;;;1.47;;
20559;SDS011;10438;51.454;6.718;2023-04-25T13:25:51;7.63;;;1.90;;
20559;SDS011;10438;51.454;6.718;2023-04-25T13:28:17;6.72;;;1.88;;
20559;SDS011;10438;51.454;6.718;2023-04-25T13:30:43;8.95;;;1.80;;
20559;SDS011;10438;51.454;6.718;2023-04-25T13:33:09;7.30;;;2.10;;
20559;SDS011;10438;51.454;6.718;2023-04-25T13:35:35;4.38;;;1.30;;
20559;SDS011;10438;51.454;6.718;2023-04-25T13:38:02;8.68;;;1.70;;
20559;SDS011;10438;51.454;6.718;2023-04-25T13:40:28;6.22;;;1.52;;
20559;SDS011;10438;51.454;6.718;2023-04-25T13:42:53;6.55;;;1.50;;
20559;SDS011;10438;51.454;6.718;2023-04-25T13:45:20;4.20;;;1.10;;
20559;SDS011;10438;51.454;6.718;2023-04-25T13:47:45;7.78;;;1.50;;
20559;SDS011;10438;51.454;6.718;2023-04-25T13:50:11;6.43;;;1.23;;
20559;SDS011;10438;51.454;6.718;2023-04-25T13:52:38;7.65;;;1.60;;
20559;SDS011;10438;51.454;6.718;2023-04-25T13:55:04;6.67;;;1.33;;
20559;SDS011;10438;51.454;6.718;2023-04-25T13:57:32;5.57;;;1.47;;
20559;SDS011;10438;51.454;6.718;2023-04-25T13:59:58;6.28;;;1.20;;
20559;SDS011;10438;51.454;6.718;2023-04-25T14:02:24;6.50;;;1.08;;
20559;SDS011;10438;51.454;6.718;2023-04-25T14:04:50;5.18;;;1.30;;
20559;SDS011;10438;51.454;6.718;2023-04-25T14:07:16;5.30;;;1.30;;
20559;SDS011;10438;51.454;6.718;2023-04-25T14:09:42;6.87;;;1.23;;
20559;SDS011;10438;51.454;6.718;2023-04-25T14:12:08;8.57;;;1.60;;
20559;SDS011;10438;51.454;6.718;2023-04-25T14:14:34;5.83;;;1.27;;
20559;SDS011;10438;51.454;6.718;2023-04-25T14:17:00;4.67;;;1.13;;
20559;SDS011;10438;51.454;6.718;2023-04-25T14:19:25;6.47;;;1.10;;
20559;SDS011;10438;51.454;6.718;2023-04-25T14:21:51;6.10;;;1.10;;
20559;SDS011;10438;51.454;6.718;2023-04-25T14:24:16;5.27;;;1.23;;
20559;SDS011;10438;51.454;6.718;2023-04-25T14:26:43;6.17;;;1.17;;
20559;SDS011;10438;51.454;6.718;2023-04-25T14:29:09;5.77;;;1.03;;
20559;SDS011;10438;51.454;6.718;2023-04-25T14:31:36;5.50;;;1.07;;
20559;SDS011;10438;51.454;6.718;2023-04-25T14:34:04;6.53;;;1.30;;
20559;SDS011;10438;51.454;6.718;2023-04-25T14:36:30;5.53;;;1.10;;
20559;SDS011;10438;51.454;6.718;2023-04-25T14:38:56;4.73;;;1.20;;
20559;SDS011;10438;51.454;6.718;2023-04-25T14:41:22;5.03;;;1.23;;
20559;SDS011;10438;51.454;6.718;2023-04-25T14:43:48;8.53;;;1.40;;
20559;SDS011;10438;51.454;6.718;2023-04-25T14:46:14;8.53;;;1.97;;
20559;SDS011;10438;51.454;6.718;2023-04-25T14:48:41;6.83;;;1.53;;